Aérodrome :
LOGIN :

S'inscrire | Disclaimer

   EN    FR    IT 

 










Légende :    VFR   VFR Marginal   IFR   IFR Intensif   IFR Très Intensif
Visi : 
Plafond : 
>= 8 km
>= 3000ft
5 à 8 km
1000 à 3000 ft
1500m à 5 km
500 à 1000 ft
800 à 1500m
200 à 500 ft
< 800m
< 200 ft
Symboles :   Orages  Brouillard  Fortes neiges  Fortes précipitations  Vent > 20 kt
SIGMETs :   Divers  Orages  Givrage  Turbulence  Onde Orograph.  Cendres Volcan.






- Altitude de l'aérodrome : 39 ft


ETNH - Hohn AB

DERNIER METAR :
  • 110320Z 20015KT 9999 BKN022 06/01 Q1005 WHT

METARs EXPIRÉS :
  • 110220Z 19015G30KT 9999 BKN022 05/00 Q1006 WHT
  • 110148Z 20017G30KT 9999 BKN027 05/00 Q1006 BLU
  • 110120Z 20018G28KT 9999 -RA BKN023 05/00 Q1006 WHT

TAF TAF ETNH
Valide du 11 à 00h jusqu'au 11 à 12h UTC


102310Z 1100/1112 19015G25KT 9999 NSW SCT020 BKN040
TEMPO 1100/1107 18018G35KT 5000 -RA SCT008 BKN020
BECMG 1105/1107 18008KT 9999 NSW SCT015 BKN030
TEMPO 1107/1112 20012KT 4000 RADZ BKN007 OVC020 BY ETGL



MET'MAP, la Météo Aéronautique d'un coup d'oeil ! - Copyright ORBIFLY Décembre 2007 - Disclaimer

ORBIFLY MET'MAP TEAM :

Programmation & Développement : Alexandra Zaïnal
Sur une idée originale de : Baudouin d'Aumeries
Assistance à la programmation : Marc-Olivier Méhu
Soutien technique & logistique : Manuel Goepfert

Contact : metmap@orbifly.com




SOURCES & CREDITS :

   NOAA